createdAt,value
2017-08-04T00:00:31.048Z,0
2017-08-04T00:01:32.445Z,0
2017-08-04T00:03:14.822Z,0
2017-08-04T00:04:16.199Z,0
2017-08-04T00:05:17.590Z,0
2017-08-04T00:06:18.969Z,0
2017-08-04T00:07:20.351Z,0
2017-08-04T00:08:21.732Z,0
2017-08-04T00:09:23.118Z,0
2017-08-04T00:10:24.509Z,0
2017-08-04T00:11:25.883Z,0
2017-08-04T00:12:27.260Z,0
2017-08-04T00:13:28.639Z,0
2017-08-04T00:15:11.006Z,0
2017-08-04T00:16:12.392Z,0
2017-08-04T00:17:13.771Z,0
2017-08-04T00:18:15.144Z,0
2017-08-04T00:19:16.528Z,0
2017-08-04T00:20:17.909Z,0
2017-08-04T00:21:19.291Z,0
2017-08-04T00:22:20.672Z,0
2017-08-04T00:23:22.051Z,0
2017-08-04T00:24:23.440Z,0
2017-08-04T00:26:05.825Z,0
2017-08-04T00:27:07.214Z,0
2017-08-04T00:28:08.593Z,0
2017-08-04T00:29:09.969Z,0
2017-08-04T00:30:11.356Z,0
2017-08-04T00:31:12.737Z,0
2017-08-04T00:32:14.127Z,0
2017-08-04T00:33:15.506Z,0
2017-08-04T00:34:16.887Z,0
2017-08-04T00:35:18.341Z,0
2017-08-04T00:36:19.786Z,0
2017-08-04T00:37:21.242Z,0
2017-08-04T00:38:22.715Z,0
2017-08-04T00:39:24.101Z,0
2017-08-04T00:40:25.554Z,0
2017-08-04T00:41:26.938Z,0
2017-08-04T00:42:28.326Z,0
2017-08-04T00:43:29.706Z,0
2017-08-04T00:45:12.087Z,0
2017-08-04T00:46:13.479Z,0
2017-08-04T00:47:14.860Z,0
2017-08-04T00:48:16.237Z,0
2017-08-04T00:49:17.618Z,0
2017-08-04T00:50:19.002Z,0
2017-08-04T00:51:20.381Z,0
2017-08-04T00:53:02.755Z,0
2017-08-04T00:54:04.138Z,0
2017-08-04T00:55:05.519Z,0
2017-08-04T00:56:06.901Z,0
2017-08-04T00:57:08.291Z,0
2017-08-04T00:58:09.675Z,0
2017-08-04T00:59:11.053Z,0
2017-08-04T01:00:12.438Z,0
2017-08-04T01:01:13.829Z,0
2017-08-04T01:02:15.208Z,0
2017-08-04T01:03:16.583Z,0
2017-08-04T01:04:17.963Z,0
2017-08-04T01:05:19.342Z,0
2017-08-04T01:06:20.721Z,0
2017-08-04T01:07:22.105Z,0
2017-08-04T01:08:23.484Z,0
2017-08-04T01:09:24.865Z,0
2017-08-04T01:10:26.242Z,0
2017-08-04T01:11:27.625Z,0
2017-08-04T01:12:29.006Z,0
2017-08-04T01:13:30.391Z,0
2017-08-04T01:14:31.790Z,0
2017-08-04T01:15:33.168Z,0
2017-08-04T01:16:34.546Z,0
2017-08-04T01:17:35.927Z,0
2017-08-04T01:18:37.304Z,0
2017-08-04T01:19:38.691Z,0
2017-08-04T01:20:40.073Z,0
2017-08-04T01:21:41.456Z,0
2017-08-04T01:22:42.839Z,0
2017-08-04T01:23:44.218Z,0
2017-08-04T01:24:45.600Z,0
2017-08-04T01:25:46.984Z,0
2017-08-04T01:26:48.382Z,0
2017-08-04T01:27:49.757Z,0
2017-08-04T01:28:51.142Z,0
2017-08-04T01:30:33.522Z,0
2017-08-04T01:31:34.901Z,0
2017-08-04T01:32:36.276Z,0
2017-08-04T01:33:37.662Z,0
2017-08-04T01:34:39.044Z,0
2017-08-04T01:35:40.426Z,0
2017-08-04T01:36:41.818Z,0
2017-08-04T01:37:43.203Z,0
2017-08-04T01:38:44.604Z,0
2017-08-04T01:39:45.979Z,0
2017-08-04T01:40:47.343Z,0
2017-08-04T01:41:48.725Z,0
2017-08-04T01:42:50.110Z,0
2017-08-04T01:43:51.487Z,0
2017-08-04T01:44:52.919Z,0
2017-08-04T01:45:55.041Z,0
2017-08-04T01:47:37.427Z,0
2017-08-04T01:48:38.800Z,0
2017-08-04T01:49:40.179Z,0
2017-08-04T01:50:41.558Z,0
2017-08-04T01:51:43.220Z,0
2017-08-04T01:52:44.606Z,0
2017-08-04T01:54:26.972Z,0
2017-08-04T01:55:28.354Z,0
2017-08-04T01:56:29.740Z,0
2017-08-04T01:57:31.116Z,0
2017-08-04T01:58:32.491Z,0
2017-08-04T02:00:14.875Z,0
2017-08-04T02:01:56.234Z,0
2017-08-04T02:02:57.613Z,0
2017-08-04T02:04:20.615Z,0
2017-08-04T02:05:21.989Z,0
2017-08-04T02:06:23.386Z,0
2017-08-04T02:07:24.746Z,0
2017-08-04T02:08:26.133Z,0
2017-08-04T02:09:27.511Z,0
2017-08-04T02:10:28.900Z,0
2017-08-04T02:11:30.288Z,0
2017-08-04T02:12:31.674Z,0
2017-08-04T02:13:33.113Z,0
2017-08-04T02:14:34.459Z,0
2017-08-04T02:15:35.877Z,0
2017-08-04T02:16:37.253Z,0
2017-08-04T02:17:38.646Z,0
2017-08-04T02:18:40.034Z,0
2017-08-04T02:19:41.460Z,0
2017-08-04T02:20:42.856Z,0
2017-08-04T02:21:44.230Z,0
2017-08-04T02:22:45.661Z,0
2017-08-04T02:23:47.098Z,0
2017-08-04T02:24:48.527Z,0
2017-08-04T02:25:49.915Z,0
2017-08-04T02:26:51.289Z,0
2017-08-04T02:27:53.273Z,0
2017-08-04T02:28:54.713Z,0
2017-08-04T02:29:56.128Z,0
2017-08-04T02:30:57.522Z,0
2017-08-04T02:31:58.914Z,0
2017-08-04T02:33:00.297Z,0
2017-08-04T02:34:01.778Z,0
2017-08-04T02:35:44.183Z,0
2017-08-04T02:36:45.544Z,0
2017-08-04T02:37:46.929Z,0
2017-08-04T02:38:48.305Z,0
2017-08-04T02:39:49.704Z,0
2017-08-04T02:40:51.075Z,0
2017-08-04T02:41:52.460Z,0
2017-08-04T02:42:53.882Z,0
2017-08-04T02:43:55.248Z,0
2017-08-04T02:44:56.632Z,0
2017-08-04T02:45:58.034Z,0
2017-08-04T02:46:59.398Z,0
2017-08-04T02:48:41.787Z,0
2017-08-04T02:49:43.181Z,0
2017-08-04T02:50:44.551Z,0
2017-08-04T02:51:45.927Z,0
2017-08-04T02:52:47.307Z,0
2017-08-04T02:53:48.708Z,0
2017-08-04T02:54:50.097Z,0
2017-08-04T02:55:51.469Z,0
2017-08-04T02:56:52.856Z,0
2017-08-04T02:57:54.225Z,0
2017-08-04T02:58:55.631Z,0
2017-08-04T02:59:56.995Z,0
2017-08-04T03:00:58.381Z,0
2017-08-04T03:01:59.758Z,0
2017-08-04T03:03:01.136Z,0
2017-08-04T03:04:02.580Z,0
2017-08-04T03:05:04.016Z,0
2017-08-04T03:06:05.418Z,0
2017-08-04T03:07:06.811Z,0
2017-08-04T03:08:08.213Z,0
2017-08-04T03:09:09.588Z,0
2017-08-04T03:10:10.968Z,0
2017-08-04T03:11:12.349Z,0
2017-08-04T03:12:13.810Z,0
2017-08-04T03:13:15.199Z,0
2017-08-04T03:14:16.576Z,0
2017-08-04T03:15:17.982Z,0
2017-08-04T03:16:19.451Z,0
2017-08-04T03:17:20.832Z,0
2017-08-04T03:18:22.214Z,0
2017-08-04T03:20:03.619Z,0
2017-08-04T03:21:04.971Z,0
2017-08-04T03:22:06.347Z,0
2017-08-04T03:23:07.732Z,0
2017-08-04T03:24:09.124Z,0
2017-08-04T03:25:10.534Z,0
2017-08-04T03:26:11.886Z,0
2017-08-04T03:27:13.265Z,0
2017-08-04T03:28:14.648Z,0
2017-08-04T03:29:16.044Z,0
2017-08-04T03:30:17.482Z,0
2017-08-04T03:31:18.916Z,0
2017-08-04T03:32:20.316Z,0
2017-08-04T03:33:21.788Z,0
2017-08-04T03:34:23.219Z,0
2017-08-04T03:35:24.603Z,0
2017-08-04T03:36:25.987Z,0
2017-08-04T03:37:27.370Z,0
2017-08-04T03:38:28.828Z,0
2017-08-04T03:39:30.215Z,0
2017-08-04T03:40:31.610Z,0
2017-08-04T03:41:33.047Z,0
2017-08-04T03:42:34.432Z,0
2017-08-04T03:44:16.801Z,0
2017-08-04T03:45:18.180Z,0
2017-08-04T03:46:19.558Z,0
2017-08-04T03:47:20.940Z,0
2017-08-04T03:48:22.313Z,0
2017-08-04T03:49:23.729Z,0
2017-08-04T03:50:25.156Z,0
2017-08-04T03:51:26.536Z,0
2017-08-04T03:52:27.997Z,5
2017-08-04T03:53:29.370Z,5
2017-08-04T03:54:30.748Z,5
2017-08-04T03:55:32.134Z,5
2017-08-04T03:56:33.592Z,5
2017-08-04T03:57:34.981Z,5
2017-08-04T03:58:36.411Z,5
2017-08-04T03:59:37.825Z,5
2017-08-04T04:00:39.290Z,5
2017-08-04T04:01:40.672Z,5
2017-08-04T04:02:42.087Z,5
2017-08-04T04:03:43.521Z,5
2017-08-04T04:04:44.973Z,10
2017-08-04T04:05:46.413Z,10
2017-08-04T04:06:47.824Z,10
2017-08-04T04:07:49.214Z,10
2017-08-04T04:08:50.670Z,10
2017-08-04T04:09:52.123Z,10
2017-08-04T04:10:53.566Z,10
2017-08-04T04:11:54.957Z,10
2017-08-04T04:12:56.354Z,15
2017-08-04T04:13:57.734Z,15
2017-08-04T04:14:59.136Z,10
2017-08-04T04:16:00.555Z,10
2017-08-04T04:17:01.975Z,10
2017-08-04T04:18:03.427Z,15
2017-08-04T04:19:04.803Z,20
2017-08-04T04:20:06.198Z,20
2017-08-04T04:21:07.619Z,15
2017-08-04T04:22:09.041Z,15
2017-08-04T04:23:10.461Z,15
2017-08-04T04:24:52.840Z,15
2017-08-04T04:25:54.223Z,15
2017-08-04T04:26:55.604Z,15
2017-08-04T04:27:56.995Z,15
2017-08-04T04:28:58.386Z,15
2017-08-04T04:29:59.784Z,15
2017-08-04T04:31:01.167Z,15
2017-08-04T04:32:02.551Z,20
2017-08-04T04:33:03.934Z,25
2017-08-04T04:34:05.315Z,30
2017-08-04T04:35:06.702Z,35
2017-08-04T04:36:08.093Z,30
2017-08-04T04:37:09.474Z,25
2017-08-04T04:38:10.858Z,20
2017-08-04T04:39:12.245Z,15
2017-08-04T04:40:13.666Z,15
2017-08-04T04:41:15.047Z,20
2017-08-04T04:42:16.435Z,30
2017-08-04T04:43:17.817Z,35
2017-08-04T04:44:19.201Z,40
2017-08-04T04:45:20.590Z,40
2017-08-04T04:46:21.983Z,40
2017-08-04T04:47:23.406Z,55
2017-08-04T04:48:24.779Z,65
2017-08-04T04:49:26.171Z,70
2017-08-04T04:50:27.552Z,75
2017-08-04T04:51:28.943Z,75
2017-08-04T04:52:30.337Z,60
2017-08-04T04:53:31.721Z,55
2017-08-04T04:54:33.105Z,45
2017-08-04T04:55:34.486Z,45
2017-08-04T04:56:35.875Z,45
2017-08-04T04:57:37.263Z,60
2017-08-04T04:58:38.660Z,80
2017-08-04T04:59:40.062Z,80
2017-08-04T05:00:41.439Z,85
2017-08-04T05:01:42.831Z,75
2017-08-04T05:02:44.220Z,70
2017-08-04T05:03:46.194Z,80
2017-08-04T05:04:48.356Z,90
2017-08-04T05:05:50.490Z,90
2017-08-04T05:06:52.130Z,90
2017-08-04T05:07:53.946Z,90
2017-08-04T05:08:56.211Z,100
2017-08-04T05:09:57.625Z,115
2017-08-04T05:10:59.061Z,105
2017-08-04T05:12:00.449Z,85
2017-08-04T05:13:01.832Z,65
2017-08-04T05:14:03.215Z,60
2017-08-04T05:15:04.602Z,50
2017-08-04T05:16:05.984Z,45
2017-08-04T05:17:07.372Z,60
2017-08-04T05:18:08.759Z,65
2017-08-04T05:19:10.144Z,60
2017-08-04T05:20:11.814Z,75
2017-08-04T05:21:14.026Z,85
2017-08-04T05:22:16.100Z,80
2017-08-04T05:23:18.491Z,80
2017-08-04T05:24:19.891Z,80
2017-08-04T05:25:21.284Z,75
2017-08-04T05:26:22.668Z,70
2017-08-04T05:27:24.070Z,70
2017-08-04T05:28:25.458Z,75
2017-08-04T05:29:26.847Z,75
2017-08-04T05:30:28.419Z,100
2017-08-04T05:31:29.829Z,115
2017-08-04T05:32:31.256Z,135
2017-08-04T05:33:32.712Z,120
2017-08-04T05:34:34.153Z,160
2017-08-04T05:35:35.780Z,145
2017-08-04T05:37:18.164Z,140
2017-08-04T05:38:19.545Z,125
2017-08-04T05:39:20.927Z,95
2017-08-04T05:40:22.312Z,100
2017-08-04T05:41:23.698Z,120
2017-08-04T05:42:25.096Z,85
2017-08-04T05:43:26.488Z,75
2017-08-04T05:44:27.876Z,105
2017-08-04T05:45:29.266Z,140
2017-08-04T05:46:30.651Z,200
2017-08-04T05:47:32.732Z,250
2017-08-04T05:48:34.595Z,240
2017-08-04T05:49:36.394Z,160
2017-08-04T05:50:38.693Z,120
2017-08-04T05:51:40.194Z,105
2017-08-04T05:52:42.440Z,115
2017-08-04T05:53:44.776Z,120
2017-08-04T05:54:46.226Z,130
2017-08-04T05:55:47.615Z,135
2017-08-04T05:56:49.001Z,145
2017-08-04T05:57:50.416Z,160
2017-08-04T05:58:52.692Z,145
2017-08-04T05:59:54.462Z,140
2017-08-04T06:00:55.856Z,140
2017-08-04T06:01:57.292Z,140
2017-08-04T06:02:58.840Z,150
2017-08-04T06:04:00.530Z,165
2017-08-04T06:05:01.960Z,165
2017-08-04T06:06:03.328Z,160
2017-08-04T06:07:04.780Z,175
2017-08-04T06:08:06.329Z,205
2017-08-04T06:09:07.714Z,255
2017-08-04T06:10:09.180Z,285
2017-08-04T06:11:10.592Z,305
2017-08-04T06:12:12.016Z,315
2017-08-04T06:13:13.411Z,305
2017-08-04T06:14:14.803Z,295
2017-08-04T06:15:57.187Z,265
2017-08-04T06:16:58.963Z,245
2017-08-04T06:18:00.311Z,250
2017-08-04T06:19:01.695Z,255
2017-08-04T06:20:03.468Z,250
2017-08-04T06:21:04.801Z,290
2017-08-04T06:22:06.208Z,345
2017-08-04T06:23:07.592Z,360
2017-08-04T06:24:08.998Z,330
2017-08-04T06:25:10.385Z,390
2017-08-04T06:26:11.772Z,390
2017-08-04T06:27:13.160Z,390
2017-08-04T06:28:14.781Z,390
2017-08-04T06:29:16.270Z,440
2017-08-04T06:30:18.451Z,420
2017-08-04T06:31:20.127Z,325
2017-08-04T06:32:21.515Z,250
2017-08-04T06:33:22.934Z,245
2017-08-04T06:34:24.565Z,285
2017-08-04T06:35:25.980Z,360
2017-08-04T06:36:27.446Z,385
2017-08-04T06:37:29.133Z,335
2017-08-04T06:38:30.841Z,340
2017-08-04T06:39:32.305Z,340
2017-08-04T06:41:14.684Z,335
2017-08-04T06:42:16.068Z,310
2017-08-04T06:43:17.453Z,260
2017-08-04T06:44:18.843Z,255
2017-08-04T06:45:20.236Z,320
2017-08-04T06:46:21.620Z,265
2017-08-04T06:47:23.008Z,220
2017-08-04T06:48:24.395Z,255
2017-08-04T06:49:25.797Z,310
2017-08-04T06:50:27.169Z,380
2017-08-04T06:51:28.587Z,320
2017-08-04T06:52:29.957Z,315
2017-08-04T06:53:31.343Z,405
2017-08-04T06:54:32.741Z,430
2017-08-04T06:55:34.123Z,445
2017-08-04T06:56:35.511Z,430
2017-08-04T06:57:36.898Z,445
2017-08-04T06:58:38.286Z,415
2017-08-04T06:59:39.679Z,445
2017-08-04T07:00:41.071Z,500
2017-08-04T07:01:42.466Z,475
2017-08-04T07:02:43.852Z,515
2017-08-04T07:03:45.241Z,580
2017-08-04T07:04:46.629Z,470
2017-08-04T07:05:48.020Z,490
2017-08-04T07:06:49.407Z,435
2017-08-04T07:07:51.146Z,765
2017-08-04T07:08:52.537Z,550
2017-08-04T07:09:53.939Z,570
2017-08-04T07:10:55.331Z,675
2017-08-04T07:11:56.714Z,830
2017-08-04T07:12:58.105Z,540
2017-08-04T07:13:59.510Z,600
2017-08-04T07:15:00.900Z,815
2017-08-04T07:16:02.291Z,960
2017-08-04T07:17:03.719Z,995
2017-08-04T07:18:05.101Z,605
2017-08-04T07:19:06.497Z,530
2017-08-04T07:20:08.339Z,465
2017-08-04T07:21:09.707Z,505
2017-08-04T07:22:11.123Z,875
2017-08-04T07:23:12.516Z,760
2017-08-04T07:24:13.985Z,565
2017-08-04T07:25:15.420Z,550
2017-08-04T07:26:16.832Z,585
2017-08-04T07:27:18.223Z,665
2017-08-04T07:28:19.629Z,525
2017-08-04T07:29:21.016Z,600
2017-08-04T07:30:22.416Z,520
2017-08-04T07:31:23.916Z,490
2017-08-04T07:32:25.298Z,420
2017-08-04T07:33:26.758Z,530
2017-08-04T07:34:28.143Z,610
2017-08-04T07:35:29.540Z,635
2017-08-04T07:36:30.930Z,620
2017-08-04T07:37:32.324Z,575
2017-08-04T07:38:33.780Z,580
2017-08-04T07:39:35.167Z,640
2017-08-04T07:40:36.555Z,605
2017-08-04T07:41:37.950Z,590
2017-08-04T07:42:39.368Z,620
2017-08-04T07:43:40.767Z,670
2017-08-04T07:44:42.184Z,665
2017-08-04T07:45:43.638Z,650
2017-08-04T07:46:45.038Z,615
2017-08-04T07:47:46.429Z,650
2017-08-04T07:48:47.840Z,715
2017-08-04T07:49:49.252Z,720
2017-08-04T07:50:50.644Z,680
2017-08-04T07:51:52.038Z,720
2017-08-04T07:52:53.430Z,725
2017-08-04T07:53:54.818Z,565
2017-08-04T07:54:56.216Z,585
2017-08-04T07:55:57.697Z,620
2017-08-04T07:57:40.137Z,725
2017-08-04T07:58:41.529Z,765
2017-08-04T07:59:42.917Z,790
2017-08-04T08:00:44.338Z,710
2017-08-04T08:01:45.723Z,700
2017-08-04T08:02:47.122Z,675
2017-08-04T08:03:48.514Z,695
2017-08-04T08:04:49.905Z,660
2017-08-04T08:05:51.295Z,670
2017-08-04T08:06:52.691Z,690
2017-08-04T08:07:54.112Z,740
2017-08-04T08:08:55.508Z,800
2017-08-04T08:09:56.894Z,890
2017-08-04T08:10:58.297Z,995
2017-08-04T08:11:59.686Z,920
2017-08-04T08:13:01.075Z,950
2017-08-04T08:14:43.458Z,970
2017-08-04T08:15:44.877Z,940
2017-08-04T08:16:46.247Z,995
2017-08-04T08:17:47.636Z,1050
2017-08-04T08:18:49.033Z,1000
2017-08-04T08:19:50.430Z,965
2017-08-04T08:20:51.825Z,885
2017-08-04T08:21:53.222Z,1000
2017-08-04T08:22:54.610Z,815
2017-08-04T08:23:56.010Z,830
2017-08-04T08:24:57.406Z,865
2017-08-04T08:26:39.918Z,850
2017-08-04T08:27:41.368Z,810
2017-08-04T08:28:42.800Z,825
2017-08-04T08:29:44.173Z,850
2017-08-04T08:30:45.659Z,785
2017-08-04T08:31:47.058Z,790
2017-08-04T08:32:48.452Z,855
2017-08-04T08:33:49.846Z,825
2017-08-04T08:34:51.517Z,760
2017-08-04T08:35:53.175Z,700
2017-08-04T08:36:54.798Z,685
2017-08-04T08:37:56.228Z,760
2017-08-04T08:38:57.617Z,880
2017-08-04T08:39:59.013Z,945
2017-08-04T08:41:00.410Z,1000
2017-08-04T08:42:01.801Z,865
2017-08-04T08:43:04.455Z,745
2017-08-04T08:44:05.950Z,730
2017-08-04T08:45:07.369Z,785
2017-08-04T08:46:08.819Z,3060
2017-08-04T08:47:10.835Z,2330
2017-08-04T08:48:12.230Z,790
2017-08-04T08:49:14.309Z,1060
2017-08-04T08:50:15.766Z,2100
2017-08-04T08:51:17.227Z,1355
2017-08-04T08:52:18.624Z,1065
2017-08-04T08:53:20.042Z,1005
2017-08-04T08:54:21.437Z,850
2017-08-04T08:55:22.832Z,820
2017-08-04T08:56:24.326Z,705
2017-08-04T08:57:25.732Z,1205
2017-08-04T08:58:27.125Z,1295
2017-08-04T08:59:28.570Z,1115
2017-08-04T09:00:30.020Z,930
2017-08-04T09:01:31.464Z,905
2017-08-04T09:02:32.859Z,860
2017-08-04T09:03:34.293Z,830
2017-08-04T09:04:35.691Z,920
2017-08-04T09:05:37.089Z,935
2017-08-04T09:06:38.499Z,1040
2017-08-04T09:07:39.909Z,980
2017-08-04T09:08:41.310Z,920
2017-08-04T09:09:42.748Z,1000
2017-08-04T09:10:44.459Z,1010
2017-08-04T09:11:45.903Z,1060
2017-08-04T09:12:47.724Z,1480
2017-08-04T09:13:49.368Z,1155
2017-08-04T09:14:50.752Z,1080
2017-08-04T09:15:52.156Z,1100
2017-08-04T09:16:53.583Z,1075
2017-08-04T09:17:55.078Z,1000
2017-08-04T09:18:57.224Z,1010
2017-08-04T09:19:59.481Z,1095
2017-08-04T09:21:01.481Z,1245
2017-08-04T09:22:02.906Z,965
2017-08-04T09:23:04.461Z,940
2017-08-04T09:24:05.870Z,1000
2017-08-04T09:25:07.268Z,1050
2017-08-04T09:26:08.702Z,1005
2017-08-04T09:27:10.111Z,1175
2017-08-04T09:28:11.504Z,1465
2017-08-04T09:29:12.931Z,1245
2017-08-04T09:30:14.465Z,1210
2017-08-04T09:31:15.869Z,1145
2017-08-04T09:32:17.311Z,1415
2017-08-04T09:33:18.738Z,1135
2017-08-04T09:34:20.215Z,1305
2017-08-04T09:35:21.629Z,1275
2017-08-04T09:36:23.059Z,1125
2017-08-04T09:37:24.473Z,1150
2017-08-04T09:38:25.868Z,970
2017-08-04T09:39:27.273Z,920
2017-08-04T09:40:28.713Z,965
2017-08-04T09:42:09.681Z,980
2017-08-04T09:43:11.468Z,1100
2017-08-04T09:44:13.431Z,1230
2017-08-04T09:45:14.843Z,1590
2017-08-04T09:46:16.243Z,1610
2017-08-04T09:47:17.643Z,1675
2017-08-04T09:48:19.039Z,1380
2017-08-04T09:49:20.447Z,1575
2017-08-04T09:50:21.844Z,1640
2017-08-04T09:51:23.243Z,1595
2017-08-04T09:52:24.679Z,1590
2017-08-04T09:53:26.081Z,1495
2017-08-04T09:54:27.483Z,1610
2017-08-04T09:55:28.880Z,1865
2017-08-04T09:56:30.285Z,1945
2017-08-04T09:57:31.682Z,2385
2017-08-04T09:58:33.091Z,1720
2017-08-04T09:59:34.492Z,1820
2017-08-04T10:00:35.892Z,1640
2017-08-04T10:01:37.295Z,1515
2017-08-04T10:02:38.697Z,1540
2017-08-04T10:03:40.100Z,1570
2017-08-04T10:04:41.493Z,1785
2017-08-04T10:05:42.903Z,1845
2017-08-04T10:06:45.014Z,1725
2017-08-04T10:07:46.399Z,2195
2017-08-04T10:08:47.799Z,1700
2017-08-04T10:09:49.209Z,1745
2017-08-04T10:10:50.613Z,1700
2017-08-04T10:11:52.011Z,1730
2017-08-04T10:12:53.407Z,2130
2017-08-04T10:13:54.829Z,2000
2017-08-04T10:14:56.232Z,2085
2017-08-04T10:15:57.632Z,1690
2017-08-04T10:16:59.034Z,1605
2017-08-04T10:18:00.439Z,1455
2017-08-04T10:19:02.232Z,875
2017-08-04T10:20:03.561Z,975
2017-08-04T10:21:04.999Z,995
2017-08-04T10:22:06.440Z,970
2017-08-04T10:23:07.837Z,1490
2017-08-04T10:24:09.324Z,1280
2017-08-04T10:25:10.728Z,770
2017-08-04T10:26:12.134Z,735
2017-08-04T10:27:13.525Z,770
2017-08-04T10:28:14.946Z,695
2017-08-04T10:29:16.343Z,810
2017-08-04T10:30:18.191Z,880
2017-08-04T10:32:00.572Z,685
2017-08-04T10:33:01.964Z,815
2017-08-04T10:34:03.363Z,895
2017-08-04T10:35:04.746Z,835
2017-08-04T10:36:06.512Z,950
2017-08-04T10:37:07.907Z,1085
2017-08-04T10:38:09.320Z,1070
2017-08-04T10:39:10.719Z,1025
2017-08-04T10:40:12.110Z,910
2017-08-04T10:41:13.507Z,925
2017-08-04T10:42:14.895Z,920
2017-08-04T10:43:16.291Z,855
2017-08-04T10:44:17.683Z,840
2017-08-04T10:45:19.280Z,840
2017-08-04T10:46:20.668Z,665
2017-08-04T10:47:22.989Z,645
2017-08-04T10:48:25.133Z,690
2017-08-04T10:49:27.410Z,770
2017-08-04T10:50:29.068Z,895
2017-08-04T10:51:30.782Z,860
2017-08-04T10:52:32.199Z,865
2017-08-04T10:53:34.357Z,1025
2017-08-04T10:54:36.317Z,1160
2017-08-04T10:55:37.704Z,935
2017-08-04T10:56:39.093Z,1100
2017-08-04T10:57:40.490Z,1165
2017-08-04T10:58:41.887Z,1265
2017-08-04T10:59:43.284Z,1265
2017-08-04T11:00:44.684Z,1390
2017-08-04T11:01:46.078Z,1650
2017-08-04T11:02:47.888Z,1690
2017-08-04T11:03:49.684Z,1610
2017-08-04T11:04:51.516Z,940
2017-08-04T11:05:52.927Z,845
2017-08-04T11:06:54.484Z,805
2017-08-04T11:07:55.877Z,900
2017-08-04T11:08:57.323Z,930
2017-08-04T11:10:38.709Z,1075
2017-08-04T11:11:40.098Z,1320
2017-08-04T11:13:03.123Z,1030
2017-08-04T11:14:04.524Z,730
2017-08-04T11:15:05.927Z,680
2017-08-04T11:16:07.335Z,770
2017-08-04T11:17:08.737Z,890
2017-08-04T11:18:10.144Z,800
2017-08-04T11:19:11.533Z,625
2017-08-04T11:20:12.930Z,635
2017-08-04T11:21:14.320Z,675
2017-08-04T11:22:15.728Z,860
2017-08-04T11:23:17.128Z,1215
2017-08-04T11:24:18.520Z,1190
2017-08-04T11:25:19.919Z,1415
2017-08-04T11:26:21.313Z,2655
2017-08-04T11:27:22.716Z,1865
2017-08-04T11:28:24.099Z,1575
2017-08-04T11:29:25.494Z,1505
2017-08-04T11:30:26.889Z,1390
2017-08-04T11:31:28.282Z,1190
2017-08-04T11:32:29.691Z,1250
2017-08-04T11:33:31.084Z,1415
2017-08-04T11:34:32.522Z,1365
2017-08-04T11:35:33.916Z,1255
2017-08-04T11:36:35.311Z,1700
2017-08-04T11:37:36.707Z,2855
2017-08-04T11:38:38.101Z,2595
2017-08-04T11:39:39.548Z,3080
2017-08-04T11:40:41.011Z,2245
2017-08-04T11:41:42.410Z,3575
2017-08-04T11:42:43.809Z,4385
2017-08-04T11:43:45.395Z,3710
2017-08-04T11:44:46.852Z,1770
2017-08-04T11:45:48.255Z,2050
2017-08-04T11:46:49.860Z,1890
2017-08-04T11:48:32.252Z,1365
2017-08-04T11:49:33.649Z,1450
2017-08-04T11:50:35.311Z,1430
2017-08-04T11:51:36.719Z,1555
2017-08-04T11:52:38.143Z,1650
2017-08-04T11:53:39.517Z,1885
2017-08-04T11:54:40.924Z,2480
2017-08-04T11:55:42.317Z,2250
2017-08-04T11:56:43.717Z,1410
2017-08-04T11:57:45.122Z,1740
2017-08-04T11:58:46.517Z,1080
2017-08-04T11:59:47.932Z,1220
2017-08-04T12:00:49.326Z,980
2017-08-04T12:01:50.720Z,810
2017-08-04T12:03:32.119Z,900
2017-08-04T12:04:33.521Z,1135
2017-08-04T12:05:56.542Z,975
2017-08-04T12:06:57.936Z,785
2017-08-04T12:07:59.331Z,645
2017-08-04T12:09:00.735Z,605
2017-08-04T12:10:02.132Z,610
2017-08-04T12:11:03.527Z,690
2017-08-04T12:12:04.967Z,585
2017-08-04T12:13:06.367Z,485
2017-08-04T12:14:07.763Z,490
2017-08-04T12:15:09.156Z,510
2017-08-04T12:16:10.550Z,660
2017-08-04T12:17:11.946Z,885
2017-08-04T12:18:13.341Z,1355
2017-08-04T12:19:14.769Z,1595
2017-08-04T12:20:16.164Z,2115
2017-08-04T12:21:17.557Z,3380
2017-08-04T12:22:18.949Z,1795
2017-08-04T12:23:20.358Z,1975
2017-08-04T12:24:21.750Z,5050
2017-08-04T12:25:23.153Z,2805
2017-08-04T12:26:24.568Z,4705
2017-08-04T12:27:25.972Z,1590
2017-08-04T12:28:27.370Z,1390
2017-08-04T12:29:28.767Z,1215
2017-08-04T12:30:30.160Z,1170
2017-08-04T12:31:31.566Z,890
2017-08-04T12:32:32.951Z,1060
2017-08-04T12:33:34.344Z,1150
2017-08-04T12:34:35.748Z,990
2017-08-04T12:35:37.143Z,1080
2017-08-04T12:36:38.540Z,1295
2017-08-04T12:37:39.950Z,1660
2017-08-04T12:38:41.342Z,4790
2017-08-04T12:39:42.741Z,1980
2017-08-04T12:40:44.141Z,4125
2017-08-04T12:41:45.550Z,3315
2017-08-04T12:42:46.950Z,3970
2017-08-04T12:43:48.343Z,3270
2017-08-04T12:44:49.741Z,4820
2017-08-04T12:45:51.144Z,4620
2017-08-04T12:46:52.546Z,2515
2017-08-04T12:47:53.943Z,2820
2017-08-04T12:48:55.356Z,4240
2017-08-04T12:49:56.757Z,3055
2017-08-04T12:50:58.150Z,2060
2017-08-04T12:52:40.548Z,940
2017-08-04T12:53:41.951Z,1395
2017-08-04T12:54:43.350Z,1825
2017-08-04T12:55:44.749Z,2460
2017-08-04T12:56:46.152Z,1530
2017-08-04T12:57:47.550Z,1135
2017-08-04T12:58:48.959Z,1115
2017-08-04T12:59:50.367Z,1510
2017-08-04T13:00:51.760Z,2195
2017-08-04T13:01:53.161Z,985
2017-08-04T13:02:54.569Z,1120
2017-08-04T13:03:55.958Z,925
2017-08-04T13:04:57.378Z,760
2017-08-04T13:05:58.756Z,565
2017-08-04T13:07:00.160Z,355
2017-08-04T13:08:42.543Z,330
2017-08-04T13:09:43.940Z,385
2017-08-04T13:10:45.356Z,340
2017-08-04T13:11:46.754Z,230
2017-08-04T13:12:48.153Z,165
2017-08-04T13:13:49.569Z,200
2017-08-04T13:14:50.964Z,395
2017-08-04T13:15:52.361Z,900
2017-08-04T13:16:53.754Z,2235
2017-08-04T13:17:55.148Z,4150
2017-08-04T13:18:56.548Z,4495
2017-08-04T13:19:57.941Z,2905
2017-08-04T13:20:59.339Z,4410
2017-08-04T13:22:00.735Z,2395
2017-08-04T13:23:02.129Z,2245
2017-08-04T13:24:03.525Z,1855
2017-08-04T13:25:04.917Z,1415
2017-08-04T13:26:06.318Z,1160
2017-08-04T13:27:07.717Z,1235
2017-08-04T13:28:09.118Z,1280
2017-08-04T13:29:10.517Z,1400
2017-08-04T13:30:11.917Z,1815
2017-08-04T13:31:13.312Z,1160
2017-08-04T13:32:55.708Z,1185
2017-08-04T13:33:57.104Z,1065
2017-08-04T13:34:58.500Z,1085
2017-08-04T13:35:59.898Z,720
2017-08-04T13:37:01.295Z,650
2017-08-04T13:38:02.695Z,720
2017-08-04T13:39:04.092Z,755
2017-08-04T13:40:05.496Z,815
2017-08-04T13:41:06.891Z,780
2017-08-04T13:42:08.284Z,645
2017-08-04T13:43:09.691Z,465
2017-08-04T13:44:11.075Z,380
2017-08-04T13:45:12.471Z,405
2017-08-04T13:46:13.865Z,490
2017-08-04T13:47:15.265Z,500
2017-08-04T13:48:16.656Z,540
2017-08-04T13:49:18.052Z,600
2017-08-04T13:50:19.444Z,1605
2017-08-04T13:51:20.839Z,1405
2017-08-04T13:52:22.238Z,1920
2017-08-04T13:53:23.635Z,4210
2017-08-04T13:54:25.034Z,2510
2017-08-04T13:55:26.427Z,1920
2017-08-04T13:56:27.819Z,3705
2017-08-04T13:57:29.215Z,4200
2017-08-04T13:58:30.610Z,1545
2017-08-04T13:59:32.006Z,1325
2017-08-04T14:00:33.402Z,1345
2017-08-04T14:01:34.812Z,2335
2017-08-04T14:02:36.216Z,1135
2017-08-04T14:03:37.612Z,960
2017-08-04T14:04:39.009Z,800
2017-08-04T14:05:40.406Z,775
2017-08-04T14:06:41.805Z,755
2017-08-04T14:07:43.215Z,800
2017-08-04T14:08:44.607Z,1615
2017-08-04T14:09:46.010Z,1030
2017-08-04T14:10:47.406Z,980
2017-08-04T14:11:48.801Z,910
2017-08-04T14:12:50.208Z,790
2017-08-04T14:13:51.600Z,770
2017-08-04T14:14:53.031Z,1480
2017-08-04T14:15:54.424Z,1240
2017-08-04T14:16:55.833Z,1255
2017-08-04T14:17:57.276Z,1350
2017-08-04T14:18:58.654Z,3035
2017-08-04T14:20:00.052Z,1150
2017-08-04T14:21:01.454Z,1225
2017-08-04T14:22:02.848Z,4180
2017-08-04T14:23:04.239Z,1065
2017-08-04T14:24:05.640Z,905
2017-08-04T14:25:07.034Z,815
2017-08-04T14:26:08.448Z,895
2017-08-04T14:27:09.912Z,920
2017-08-04T14:28:11.308Z,1015
2017-08-04T14:29:12.712Z,1080
2017-08-04T14:30:14.110Z,835
2017-08-04T14:31:15.749Z,690
2017-08-04T14:32:17.167Z,615
2017-08-04T14:33:18.565Z,2175
2017-08-04T14:34:20.032Z,610
2017-08-04T14:35:21.456Z,645
2017-08-04T14:36:22.848Z,735
2017-08-04T14:37:24.290Z,880
2017-08-04T14:39:06.664Z,1040